<?xml version="1.0" encoding="UTF-8"?>
<gpx xmlns="http://www.topografix.com/GPX/1/1" creator="GPSies http://www.gpsies.com - Hermigua El Cedro" version="1.1" xmlns:xsi="http://www.w3.org/2001/XMLSchema-instance" xsi:schemaLocation="http://www.topografix.com/GPX/1/1 http://www.topografix.com/GPX/1/1/gpx.xsd">
  <metadata>
    <name>Hermigua El Cedro</name>
    <copyright author="GPSies.com" />
    <link href="http://www.gpsies.com/map.do?fileId=ixmkvizbldbwhfmh">
      <text>Hermigua El Cedro on GPSies.com</text>
    </link>
    <time>2009-09-22T11:53:28Z</time>
  </metadata>
  <trk>
    <name>Hermigua El Cedro on GPSies.com</name>
    <link href="http://www.gpsies.com/map.do?fileId=ixmkvizbldbwhfmh" />
    <trkseg>
      <trkpt lat="28.14924660" lon="-17.2044616">
        <ele>309.00000</ele>
        <time>2009-09-22T11:53:28Z</time>
      </trkpt>
      <trkpt lat="28.14924660" lon="-17.2045466">
        <ele>309.00000</ele>
        <time>2009-09-22T11:53:31Z</time>
      </trkpt>
      <trkpt lat="28.14926830" lon="-17.2044616">
        <ele>309.00000</ele>
        <time>2009-09-22T11:53:34Z</time>
      </trkpt>
      <trkpt lat="28.14815330" lon="-17.2044833">
        <ele>314.00000</ele>
        <time>2009-09-22T11:54:19Z</time>
      </trkpt>
      <trkpt lat="28.14843160" lon="-17.2040966">
        <ele>314.00000</ele>
        <time>2009-09-22T11:54:37Z</time>
      </trkpt>
      <trkpt lat="28.14823830" lon="-17.2039683">
        <ele>314.00000</ele>
        <time>2009-09-22T11:54:46Z</time>
      </trkpt>
      <trkpt lat="28.14783160" lon="-17.2045466">
        <ele>346.00000</ele>
        <time>2009-09-22T11:55:12Z</time>
      </trkpt>
      <trkpt lat="28.14742330" lon="-17.2043966">
        <ele>346.00000</ele>
        <time>2009-09-22T11:55:29Z</time>
      </trkpt>
      <trkpt lat="28.14729500" lon="-17.2043316">
        <ele>346.00000</ele>
        <time>2009-09-22T11:55:35Z</time>
      </trkpt>
      <trkpt lat="28.14738000" lon="-17.2044616">
        <ele>346.00000</ele>
        <time>2009-09-22T11:55:40Z</time>
      </trkpt>
      <trkpt lat="28.14746660" lon="-17.2045033">
        <ele>346.00000</ele>
        <time>2009-09-22T11:55:44Z</time>
      </trkpt>
      <trkpt lat="28.14791660" lon="-17.2045683">
        <ele>314.00000</ele>
        <time>2009-09-22T11:56:02Z</time>
      </trkpt>
      <trkpt lat="28.14813160" lon="-17.2047616">
        <ele>321.00000</ele>
        <time>2009-09-22T11:56:13Z</time>
      </trkpt>
      <trkpt lat="28.14753000" lon="-17.2049983">
        <ele>325.00000</ele>
        <time>2009-09-22T11:56:39Z</time>
      </trkpt>
      <trkpt lat="28.14776660" lon="-17.2052983">
        <ele>325.00000</ele>
        <time>2009-09-22T11:56:53Z</time>
      </trkpt>
      <trkpt lat="28.14776660" lon="-17.2053616">
        <ele>325.00000</ele>
        <time>2009-09-22T11:56:55Z</time>
      </trkpt>
      <trkpt lat="28.14703660" lon="-17.2056416">
        <ele>339.00000</ele>
        <time>2009-09-22T11:57:26Z</time>
      </trkpt>
      <trkpt lat="28.14673660" lon="-17.2055983">
        <ele>339.00000</ele>
        <time>2009-09-22T11:57:38Z</time>
      </trkpt>
      <trkpt lat="28.14643660" lon="-17.2055983">
        <ele>339.00000</ele>
        <time>2009-09-22T11:57:50Z</time>
      </trkpt>
      <trkpt lat="28.14643660" lon="-17.2058766">
        <ele>339.00000</ele>
        <time>2009-09-22T11:58:00Z</time>
      </trkpt>
      <trkpt lat="28.14626500" lon="-17.2059416">
        <ele>339.00000</ele>
        <time>2009-09-22T11:58:07Z</time>
      </trkpt>
      <trkpt lat="28.14628660" lon="-17.2060283">
        <ele>339.00000</ele>
        <time>2009-09-22T11:58:10Z</time>
      </trkpt>
      <trkpt lat="28.14564160" lon="-17.2059633">
        <ele>364.00000</ele>
        <time>2009-09-22T11:58:36Z</time>
      </trkpt>
      <trkpt lat="28.14557830" lon="-17.2060283">
        <ele>364.00000</ele>
        <time>2009-09-22T11:58:40Z</time>
      </trkpt>
      <trkpt lat="28.14587830" lon="-17.2065416">
        <ele>359.00000</ele>
        <time>2009-09-22T11:59:01Z</time>
      </trkpt>
      <trkpt lat="28.14590000" lon="-17.2068216">
        <ele>359.00000</ele>
        <time>2009-09-22T11:59:11Z</time>
      </trkpt>
      <trkpt lat="28.14555660" lon="-17.2073583">
        <ele>402.00000</ele>
        <time>2009-09-22T11:59:35Z</time>
      </trkpt>
      <trkpt lat="28.14519160" lon="-17.2076150">
        <ele>377.00000</ele>
        <time>2009-09-22T11:59:52Z</time>
      </trkpt>
      <trkpt lat="28.14517000" lon="-17.2076150">
        <ele>377.00000</ele>
        <time>2009-09-22T11:59:53Z</time>
      </trkpt>
      <trkpt lat="28.14514830" lon="-17.2078083">
        <ele>377.00000</ele>
        <time>2009-09-22T12:00:00Z</time>
      </trkpt>
      <trkpt lat="28.14450500" lon="-17.2077016">
        <ele>406.00000</ele>
        <time>2009-09-22T12:00:26Z</time>
      </trkpt>
      <trkpt lat="28.14414000" lon="-17.2079150">
        <ele>406.00000</ele>
        <time>2009-09-22T12:00:42Z</time>
      </trkpt>
      <trkpt lat="28.14418330" lon="-17.2074433">
        <ele>406.00000</ele>
        <time>2009-09-22T12:00:59Z</time>
      </trkpt>
      <trkpt lat="28.14414000" lon="-17.2074650">
        <ele>406.00000</ele>
        <time>2009-09-22T12:01:01Z</time>
      </trkpt>
      <trkpt lat="28.14392500" lon="-17.2079583">
        <ele>400.00000</ele>
        <time>2009-09-22T12:01:20Z</time>
      </trkpt>
      <trkpt lat="28.14373330" lon="-17.2080666">
        <ele>414.00000</ele>
        <time>2009-09-22T12:01:29Z</time>
      </trkpt>
      <trkpt lat="28.14375330" lon="-17.2084300">
        <ele>400.00000</ele>
        <time>2009-09-22T12:01:42Z</time>
      </trkpt>
      <trkpt lat="28.14366830" lon="-17.2086450">
        <ele>414.00000</ele>
        <time>2009-09-22T12:01:50Z</time>
      </trkpt>
      <trkpt lat="28.14343160" lon="-17.2088166">
        <ele>430.00000</ele>
        <time>2009-09-22T12:02:01Z</time>
      </trkpt>
      <trkpt lat="28.14332500" lon="-17.2093533">
        <ele>430.00000</ele>
        <time>2009-09-22T12:02:21Z</time>
      </trkpt>
      <trkpt lat="28.14328160" lon="-17.2101050">
        <ele>476.00000</ele>
        <time>2009-09-22T12:02:47Z</time>
      </trkpt>
      <trkpt lat="28.14321830" lon="-17.2100616">
        <ele>476.00000</ele>
        <time>2009-09-22T12:02:50Z</time>
      </trkpt>
      <trkpt lat="28.14330330" lon="-17.2100833">
        <ele>476.00000</ele>
        <time>2009-09-22T12:02:54Z</time>
      </trkpt>
      <trkpt lat="28.14332500" lon="-17.2105550">
        <ele>514.00000</ele>
        <time>2009-09-22T12:03:10Z</time>
      </trkpt>
      <trkpt lat="28.14321830" lon="-17.2108333">
        <ele>514.00000</ele>
        <time>2009-09-22T12:03:21Z</time>
      </trkpt>
      <trkpt lat="28.14283160" lon="-17.2111983">
        <ele>483.00000</ele>
        <time>2009-09-22T12:03:41Z</time>
      </trkpt>
      <trkpt lat="28.14274500" lon="-17.2111566">
        <ele>483.00000</ele>
        <time>2009-09-22T12:03:45Z</time>
      </trkpt>
      <trkpt lat="28.14272330" lon="-17.2109633">
        <ele>483.00000</ele>
        <time>2009-09-22T12:03:52Z</time>
      </trkpt>
      <trkpt lat="28.14227330" lon="-17.2111766">
        <ele>483.00000</ele>
        <time>2009-09-22T12:04:11Z</time>
      </trkpt>
      <trkpt lat="28.14218830" lon="-17.2115416">
        <ele>504.00000</ele>
        <time>2009-09-22T12:04:25Z</time>
      </trkpt>
      <trkpt lat="28.14218830" lon="-17.2116066">
        <ele>504.00000</ele>
        <time>2009-09-22T12:04:27Z</time>
      </trkpt>
      <trkpt lat="28.14197330" lon="-17.2117783">
        <ele>526.00000</ele>
        <time>2009-09-22T12:04:37Z</time>
      </trkpt>
      <trkpt lat="28.14128660" lon="-17.2116283">
        <ele>526.00000</ele>
        <time>2009-09-22T12:05:05Z</time>
      </trkpt>
      <trkpt lat="28.14124330" lon="-17.2120150">
        <ele>577.00000</ele>
        <time>2009-09-22T12:05:19Z</time>
      </trkpt>
      <trkpt lat="28.14098660" lon="-17.2122716">
        <ele>557.00000</ele>
        <time>2009-09-22T12:05:33Z</time>
      </trkpt>
      <trkpt lat="28.14062160" lon="-17.2123366">
        <ele>557.00000</ele>
        <time>2009-09-22T12:05:48Z</time>
      </trkpt>
      <trkpt lat="28.13991330" lon="-17.2121650">
        <ele>588.00000</ele>
        <time>2009-09-22T12:06:17Z</time>
      </trkpt>
      <trkpt lat="28.14045000" lon="-17.2124433">
        <ele>557.00000</ele>
        <time>2009-09-22T12:06:40Z</time>
      </trkpt>
      <trkpt lat="28.14038500" lon="-17.2124216">
        <ele>588.00000</ele>
        <time>2009-09-22T12:06:43Z</time>
      </trkpt>
      <trkpt lat="28.14019160" lon="-17.2124000">
        <ele>588.00000</ele>
        <time>2009-09-22T12:06:51Z</time>
      </trkpt>
      <trkpt lat="28.14006330" lon="-17.2124650">
        <ele>588.00000</ele>
        <time>2009-09-22T12:06:56Z</time>
      </trkpt>
      <trkpt lat="28.13984830" lon="-17.2123366">
        <ele>588.00000</ele>
        <time>2009-09-22T12:07:06Z</time>
      </trkpt>
      <trkpt lat="28.14006330" lon="-17.2126583">
        <ele>588.00000</ele>
        <time>2009-09-22T12:07:20Z</time>
      </trkpt>
      <trkpt lat="28.13982660" lon="-17.2127650">
        <ele>588.00000</ele>
        <time>2009-09-22T12:07:31Z</time>
      </trkpt>
      <trkpt lat="28.13980500" lon="-17.2127016">
        <ele>588.00000</ele>
        <time>2009-09-22T12:07:33Z</time>
      </trkpt>
      <trkpt lat="28.13969830" lon="-17.2130233">
        <ele>591.00000</ele>
        <time>2009-09-22T12:07:45Z</time>
      </trkpt>
      <trkpt lat="28.13952660" lon="-17.2131516">
        <time>2009-09-22T12:07:53Z</time>
      </trkpt>
      <trkpt lat="28.13944160" lon="-17.2131733">
        <time>2009-09-22T12:07:57Z</time>
      </trkpt>
      <trkpt lat="28.13980500" lon="-17.2130433">
        <ele>591.00000</ele>
        <time>2009-09-22T12:08:12Z</time>
      </trkpt>
      <trkpt lat="28.13982660" lon="-17.2133016">
        <ele>591.00000</ele>
        <time>2009-09-22T12:08:21Z</time>
      </trkpt>
      <trkpt lat="28.13989160" lon="-17.2132800">
        <ele>591.00000</ele>
        <time>2009-09-22T12:08:24Z</time>
      </trkpt>
      <trkpt lat="28.13980500" lon="-17.2133666">
        <ele>591.00000</ele>
        <time>2009-09-22T12:08:29Z</time>
      </trkpt>
      <trkpt lat="28.13961330" lon="-17.2140316">
        <time>2009-09-22T12:08:53Z</time>
      </trkpt>
      <trkpt lat="28.13997660" lon="-17.2135383">
        <ele>591.00000</ele>
        <time>2009-09-22T12:09:16Z</time>
      </trkpt>
      <trkpt lat="28.14010660" lon="-17.2136450">
        <ele>591.00000</ele>
        <time>2009-09-22T12:09:22Z</time>
      </trkpt>
      <trkpt lat="28.13997660" lon="-17.2138383">
        <time>2009-09-22T12:09:31Z</time>
      </trkpt>
      <trkpt lat="28.13978500" lon="-17.2139233">
        <time>2009-09-22T12:09:39Z</time>
      </trkpt>
      <trkpt lat="28.13957000" lon="-17.2137300">
        <time>2009-09-22T12:09:50Z</time>
      </trkpt>
      <trkpt lat="28.13948330" lon="-17.2143750">
        <time>2009-09-22T12:10:13Z</time>
      </trkpt>
      <trkpt lat="28.13961330" lon="-17.2143100">
        <time>2009-09-22T12:10:19Z</time>
      </trkpt>
      <trkpt lat="28.13944160" lon="-17.2141816">
        <time>2009-09-22T12:10:27Z</time>
      </trkpt>
      <trkpt lat="28.13890500" lon="-17.2144383">
        <time>2009-09-22T12:10:51Z</time>
      </trkpt>
      <trkpt lat="28.13901160" lon="-17.2144816">
        <time>2009-09-22T12:10:55Z</time>
      </trkpt>
      <trkpt lat="28.13871160" lon="-17.2143316">
        <time>2009-09-22T12:11:08Z</time>
      </trkpt>
      <trkpt lat="28.13869000" lon="-17.2143533">
        <time>2009-09-22T12:11:09Z</time>
      </trkpt>
      <trkpt lat="28.13881830" lon="-17.2146533">
        <time>2009-09-22T12:11:21Z</time>
      </trkpt>
      <trkpt lat="28.13858330" lon="-17.2146100">
        <time>2009-09-22T12:11:31Z</time>
      </trkpt>
      <trkpt lat="28.13826160" lon="-17.2147600">
        <time>2009-09-22T12:11:45Z</time>
      </trkpt>
      <trkpt lat="28.13806830" lon="-17.2145683">
        <time>2009-09-22T12:11:55Z</time>
      </trkpt>
      <trkpt lat="28.13778830" lon="-17.2146316">
        <ele>795.00000</ele>
        <time>2009-09-22T12:12:06Z</time>
      </trkpt>
      <trkpt lat="28.13725160" lon="-17.2144166">
        <ele>787.00000</ele>
        <time>2009-09-22T12:12:29Z</time>
      </trkpt>
      <trkpt lat="28.13716660" lon="-17.2148900">
        <ele>795.00000</ele>
        <time>2009-09-22T12:12:46Z</time>
      </trkpt>
      <trkpt lat="28.13714500" lon="-17.2149316">
        <ele>795.00000</ele>
        <time>2009-09-22T12:12:48Z</time>
      </trkpt>
      <trkpt lat="28.13706000" lon="-17.2148900">
        <ele>801.00000</ele>
        <time>2009-09-22T12:12:51Z</time>
      </trkpt>
      <trkpt lat="28.13714500" lon="-17.2150183">
        <ele>795.00000</ele>
        <time>2009-09-22T12:12:57Z</time>
      </trkpt>
      <trkpt lat="28.13727330" lon="-17.2149750">
        <ele>795.00000</ele>
        <time>2009-09-22T12:13:03Z</time>
      </trkpt>
      <trkpt lat="28.13802500" lon="-17.2154050">
        <time>2009-09-22T12:13:36Z</time>
      </trkpt>
      <trkpt lat="28.13738160" lon="-17.2151250">
        <ele>795.00000</ele>
        <time>2009-09-22T12:14:04Z</time>
      </trkpt>
      <trkpt lat="28.13727330" lon="-17.2152966">
        <ele>795.00000</ele>
        <time>2009-09-22T12:14:11Z</time>
      </trkpt>
      <trkpt lat="28.13744500" lon="-17.2154050">
        <ele>795.00000</ele>
        <time>2009-09-22T12:14:19Z</time>
      </trkpt>
      <trkpt lat="28.13766000" lon="-17.2155116">
        <ele>838.00000</ele>
        <time>2009-09-22T12:14:29Z</time>
      </trkpt>
      <trkpt lat="28.13789660" lon="-17.2155983">
        <ele>838.00000</ele>
        <time>2009-09-22T12:14:38Z</time>
      </trkpt>
      <trkpt lat="28.13828160" lon="-17.2150400">
        <time>2009-09-22T12:15:03Z</time>
      </trkpt>
      <trkpt lat="28.13854000" lon="-17.2151250">
        <time>2009-09-22T12:15:14Z</time>
      </trkpt>
      <trkpt lat="28.13824000" lon="-17.2153833">
        <time>2009-09-22T12:15:29Z</time>
      </trkpt>
      <trkpt lat="28.13834660" lon="-17.2155550">
        <ele>861.00000</ele>
        <time>2009-09-22T12:15:37Z</time>
      </trkpt>
      <trkpt lat="28.13847500" lon="-17.2155333">
        <ele>861.00000</ele>
        <time>2009-09-22T12:15:42Z</time>
      </trkpt>
      <trkpt lat="28.13892660" lon="-17.2155550">
        <ele>892.00000</ele>
        <time>2009-09-22T12:16:00Z</time>
      </trkpt>
      <trkpt lat="28.13929000" lon="-17.2156833">
        <ele>892.00000</ele>
        <time>2009-09-22T12:16:15Z</time>
      </trkpt>
      <trkpt lat="28.14027830" lon="-17.2159200">
        <ele>921.00000</ele>
        <time>2009-09-22T12:16:56Z</time>
      </trkpt>
      <trkpt lat="28.14010660" lon="-17.2157483">
        <ele>921.00000</ele>
        <time>2009-09-22T12:17:05Z</time>
      </trkpt>
      <trkpt lat="28.14008500" lon="-17.2155333">
        <ele>921.00000</ele>
        <time>2009-09-22T12:17:13Z</time>
      </trkpt>
      <trkpt lat="28.14027830" lon="-17.2156833">
        <ele>921.00000</ele>
        <time>2009-09-22T12:17:22Z</time>
      </trkpt>
      <trkpt lat="28.14034160" lon="-17.2156833">
        <ele>921.00000</ele>
        <time>2009-09-22T12:17:24Z</time>
      </trkpt>
      <trkpt lat="28.14040660" lon="-17.2157050">
        <ele>921.00000</ele>
        <time>2009-09-22T12:17:27Z</time>
      </trkpt>
      <trkpt lat="28.14064330" lon="-17.2157050">
        <time>2009-09-22T12:17:37Z</time>
      </trkpt>
      <trkpt lat="28.14066330" lon="-17.2157266">
        <time>2009-09-22T12:17:38Z</time>
      </trkpt>
      <trkpt lat="28.14094330" lon="-17.2157266">
        <time>2009-09-22T12:17:49Z</time>
      </trkpt>
      <trkpt lat="28.14092160" lon="-17.2159200">
        <time>2009-09-22T12:17:56Z</time>
      </trkpt>
      <trkpt lat="28.14105520" lon="-17.2162520">
        <ele>978.00000</ele>
        <time>2009-09-22T12:18:09Z</time>
      </trkpt>
      <trkpt lat="28.14102680" lon="-17.2165739">
        <ele>978.00000</ele>
        <time>2009-09-22T12:18:20Z</time>
      </trkpt>
      <trkpt lat="28.14111200" lon="-17.2168099">
        <ele>978.00000</ele>
        <time>2009-09-22T12:18:29Z</time>
      </trkpt>
      <trkpt lat="28.14131060" lon="-17.2168421">
        <ele>960.00000</ele>
        <time>2009-09-22T12:18:37Z</time>
      </trkpt>
      <trkpt lat="28.14169850" lon="-17.2168743">
        <ele>960.00000</ele>
        <time>2009-09-22T12:18:53Z</time>
      </trkpt>
      <trkpt lat="28.14190670" lon="-17.2171533">
        <ele>997.00000</ele>
        <time>2009-09-22T12:19:06Z</time>
      </trkpt>
      <trkpt lat="28.14315330" lon="-17.2168850">
        <ele>964.00000</ele>
        <time>2009-09-22T12:19:56Z</time>
      </trkpt>
      <trkpt lat="28.14291660" lon="-17.2167783">
        <ele>942.00000</ele>
        <time>2009-09-22T12:20:07Z</time>
      </trkpt>
      <trkpt lat="28.14306660" lon="-17.2167783">
        <ele>964.00000</ele>
        <time>2009-09-22T12:20:13Z</time>
      </trkpt>
      <trkpt lat="28.14375330" lon="-17.2163483">
        <ele>972.00000</ele>
        <time>2009-09-22T12:20:44Z</time>
      </trkpt>
      <trkpt lat="28.14467660" lon="-17.2166283">
        <ele>965.00000</ele>
        <time>2009-09-22T12:21:22Z</time>
      </trkpt>
      <trkpt lat="28.14504160" lon="-17.2165200">
        <ele>965.00000</ele>
        <time>2009-09-22T12:21:37Z</time>
      </trkpt>
      <trkpt lat="28.14523500" lon="-17.2163483">
        <ele>965.00000</ele>
        <time>2009-09-22T12:21:47Z</time>
      </trkpt>
      <trkpt lat="28.14590000" lon="-17.2164350">
        <ele>956.00000</ele>
        <time>2009-09-22T12:22:14Z</time>
      </trkpt>
      <trkpt lat="28.14660830" lon="-17.2169066">
        <ele>941.00000</ele>
        <time>2009-09-22T12:22:47Z</time>
      </trkpt>
      <trkpt lat="28.14675830" lon="-17.2172066">
        <ele>936.00000</ele>
        <time>2009-09-22T12:22:59Z</time>
      </trkpt>
      <trkpt lat="28.14798160" lon="-17.2176366">
        <ele>924.00000</ele>
        <time>2009-09-22T12:23:50Z</time>
      </trkpt>
      <trkpt lat="28.14849660" lon="-17.2176366">
        <ele>924.00000</ele>
        <time>2009-09-22T12:24:11Z</time>
      </trkpt>
      <trkpt lat="28.14916160" lon="-17.2172283">
        <ele>913.00000</ele>
        <time>2009-09-22T12:24:41Z</time>
      </trkpt>
      <trkpt lat="28.14941830" lon="-17.2168633">
        <ele>911.00000</ele>
        <time>2009-09-22T12:24:58Z</time>
      </trkpt>
      <trkpt lat="28.14969830" lon="-17.2163483">
        <ele>902.00000</ele>
        <time>2009-09-22T12:25:19Z</time>
      </trkpt>
      <trkpt lat="28.14984830" lon="-17.2161550">
        <ele>882.00000</ele>
        <time>2009-09-22T12:25:28Z</time>
      </trkpt>
      <trkpt lat="28.15019160" lon="-17.2157700">
        <ele>882.00000</ele>
        <time>2009-09-22T12:25:47Z</time>
      </trkpt>
      <trkpt lat="28.15113500" lon="-17.2160916">
        <ele>880.00000</ele>
        <time>2009-09-22T12:26:27Z</time>
      </trkpt>
      <trkpt lat="28.15156500" lon="-17.2157266">
        <ele>882.00000</ele>
        <time>2009-09-22T12:26:48Z</time>
      </trkpt>
      <trkpt lat="28.15188660" lon="-17.2152550">
        <ele>861.00000</ele>
        <time>2009-09-22T12:27:09Z</time>
      </trkpt>
      <trkpt lat="28.15231500" lon="-17.2150616">
        <ele>854.00000</ele>
        <time>2009-09-22T12:27:28Z</time>
      </trkpt>
      <trkpt lat="28.15377500" lon="-17.2152116">
        <ele>843.00000</ele>
        <time>2009-09-22T12:28:27Z</time>
      </trkpt>
      <trkpt lat="28.15499830" lon="-17.2146750">
        <ele>843.00000</ele>
        <time>2009-09-22T12:29:19Z</time>
      </trkpt>
      <trkpt lat="28.15566330" lon="-17.2146750">
        <ele>843.00000</ele>
        <time>2009-09-22T12:29:46Z</time>
      </trkpt>
      <trkpt lat="28.15566330" lon="-17.2146316">
        <ele>843.00000</ele>
        <time>2009-09-22T12:29:47Z</time>
      </trkpt>
      <trkpt lat="28.15688660" lon="-17.2144383">
        <ele>813.00000</ele>
        <time>2009-09-22T12:30:37Z</time>
      </trkpt>
      <trkpt lat="28.15680000" lon="-17.2140316">
        <ele>813.00000</ele>
        <time>2009-09-22T12:30:51Z</time>
      </trkpt>
      <trkpt lat="28.15669330" lon="-17.2140733">
        <ele>813.00000</ele>
        <time>2009-09-22T12:30:56Z</time>
      </trkpt>
      <trkpt lat="28.15613500" lon="-17.2141166">
        <ele>821.00000</ele>
        <time>2009-09-22T12:31:18Z</time>
      </trkpt>
      <trkpt lat="28.15587830" lon="-17.2140733">
        <ele>821.00000</ele>
        <time>2009-09-22T12:31:29Z</time>
      </trkpt>
      <trkpt lat="28.15607000" lon="-17.2140100">
        <ele>821.00000</ele>
        <time>2009-09-22T12:31:37Z</time>
      </trkpt>
      <trkpt lat="28.15675660" lon="-17.2136016">
        <ele>796.00000</ele>
        <time>2009-09-22T12:32:08Z</time>
      </trkpt>
      <trkpt lat="28.15731500" lon="-17.2134300">
        <ele>765.00000</ele>
        <time>2009-09-22T12:32:31Z</time>
      </trkpt>
      <trkpt lat="28.15742330" lon="-17.2135800">
        <ele>765.00000</ele>
        <time>2009-09-22T12:32:38Z</time>
      </trkpt>
      <trkpt lat="28.15744330" lon="-17.2133016">
        <ele>765.00000</ele>
        <time>2009-09-22T12:32:48Z</time>
      </trkpt>
      <trkpt lat="28.15774500" lon="-17.2125083">
        <ele>762.00000</ele>
        <time>2009-09-22T12:33:18Z</time>
      </trkpt>
      <trkpt lat="28.15791660" lon="-17.2124000">
        <ele>654.00000</ele>
        <time>2009-09-22T12:33:26Z</time>
      </trkpt>
      <trkpt lat="28.15793830" lon="-17.2119933">
        <ele>707.00000</ele>
        <time>2009-09-22T12:33:40Z</time>
      </trkpt>
      <trkpt lat="28.15806660" lon="-17.2115000">
        <ele>707.00000</ele>
        <time>2009-09-22T12:33:59Z</time>
      </trkpt>
      <trkpt lat="28.15847330" lon="-17.2110050">
        <ele>741.00000</ele>
        <time>2009-09-22T12:34:22Z</time>
      </trkpt>
      <trkpt lat="28.15898830" lon="-17.2101466">
        <ele>706.00000</ele>
        <time>2009-09-22T12:34:59Z</time>
      </trkpt>
      <trkpt lat="28.15853830" lon="-17.2101900">
        <ele>748.00000</ele>
        <time>2009-09-22T12:35:17Z</time>
      </trkpt>
      <trkpt lat="28.15890330" lon="-17.2099116">
        <ele>706.00000</ele>
        <time>2009-09-22T12:35:35Z</time>
      </trkpt>
      <trkpt lat="28.15898830" lon="-17.2094183">
        <ele>705.00000</ele>
        <time>2009-09-22T12:35:52Z</time>
      </trkpt>
      <trkpt lat="28.15890330" lon="-17.2088166">
        <ele>705.00000</ele>
        <time>2009-09-22T12:36:14Z</time>
      </trkpt>
      <trkpt lat="28.15907500" lon="-17.2084300">
        <ele>655.00000</ele>
        <time>2009-09-22T12:36:29Z</time>
      </trkpt>
      <trkpt lat="28.15961160" lon="-17.2081083">
        <ele>631.00000</ele>
        <time>2009-09-22T12:36:54Z</time>
      </trkpt>
      <trkpt lat="28.15999660" lon="-17.2077650">
        <ele>580.00000</ele>
        <time>2009-09-22T12:37:13Z</time>
      </trkpt>
      <trkpt lat="28.15952500" lon="-17.2083450">
        <ele>655.00000</ele>
        <time>2009-09-22T12:37:41Z</time>
      </trkpt>
      <trkpt lat="28.15978330" lon="-17.2082383">
        <ele>631.00000</ele>
        <time>2009-09-22T12:37:52Z</time>
      </trkpt>
      <trkpt lat="28.16008330" lon="-17.2078733">
        <ele>580.00000</ele>
        <time>2009-09-22T12:38:10Z</time>
      </trkpt>
      <trkpt lat="28.16025500" lon="-17.2077233">
        <ele>580.00000</ele>
        <time>2009-09-22T12:38:18Z</time>
      </trkpt>
      <trkpt lat="28.16025500" lon="-17.2079150">
        <ele>580.00000</ele>
        <time>2009-09-22T12:38:25Z</time>
      </trkpt>
      <trkpt lat="28.16036160" lon="-17.2082383">
        <ele>631.00000</ele>
        <time>2009-09-22T12:38:37Z</time>
      </trkpt>
      <trkpt lat="28.16059830" lon="-17.2075716">
        <ele>522.00000</ele>
        <time>2009-09-22T12:39:03Z</time>
      </trkpt>
      <trkpt lat="28.16079160" lon="-17.2079150">
        <ele>522.00000</ele>
        <time>2009-09-22T12:39:17Z</time>
      </trkpt>
      <trkpt lat="28.16079160" lon="-17.2077866">
        <ele>522.00000</ele>
        <time>2009-09-22T12:39:21Z</time>
      </trkpt>
      <trkpt lat="28.16092000" lon="-17.2072500">
        <ele>522.00000</ele>
        <time>2009-09-22T12:39:41Z</time>
      </trkpt>
      <trkpt lat="28.16096330" lon="-17.2075716">
        <ele>522.00000</ele>
        <time>2009-09-22T12:39:53Z</time>
      </trkpt>
      <trkpt lat="28.16107000" lon="-17.2073150">
        <ele>522.00000</ele>
        <time>2009-09-22T12:40:03Z</time>
      </trkpt>
      <trkpt lat="28.16135000" lon="-17.2068216">
        <ele>353.00000</ele>
        <time>2009-09-22T12:40:23Z</time>
      </trkpt>
      <trkpt lat="28.16083500" lon="-17.2066283">
        <ele>466.00000</ele>
        <time>2009-09-22T12:40:45Z</time>
      </trkpt>
      <trkpt lat="28.16040500" lon="-17.2066716">
        <ele>522.00000</ele>
        <time>2009-09-22T12:41:02Z</time>
      </trkpt>
      <trkpt lat="28.15980500" lon="-17.2066283">
        <ele>522.00000</ele>
        <time>2009-09-22T12:41:26Z</time>
      </trkpt>
      <trkpt lat="28.16021160" lon="-17.2063500">
        <ele>522.00000</ele>
        <time>2009-09-22T12:41:45Z</time>
      </trkpt>
      <trkpt lat="28.16057660" lon="-17.2063916">
        <ele>466.00000</ele>
        <time>2009-09-22T12:42:00Z</time>
      </trkpt>
      <trkpt lat="28.16096330" lon="-17.2060916">
        <ele>456.00000</ele>
        <time>2009-09-22T12:42:19Z</time>
      </trkpt>
      <trkpt lat="28.16109160" lon="-17.2060283">
        <ele>456.00000</ele>
        <time>2009-09-22T12:42:24Z</time>
      </trkpt>
      <trkpt lat="28.16102660" lon="-17.2059633">
        <ele>456.00000</ele>
        <time>2009-09-22T12:42:28Z</time>
      </trkpt>
      <trkpt lat="28.16079160" lon="-17.2060066">
        <ele>456.00000</ele>
        <time>2009-09-22T12:42:37Z</time>
      </trkpt>
      <trkpt lat="28.16089830" lon="-17.2058133">
        <ele>456.00000</ele>
        <time>2009-09-22T12:42:45Z</time>
      </trkpt>
      <trkpt lat="28.16094160" lon="-17.2056633">
        <ele>456.00000</ele>
        <time>2009-09-22T12:42:51Z</time>
      </trkpt>
      <trkpt lat="28.16111330" lon="-17.2055983">
        <ele>456.00000</ele>
        <time>2009-09-22T12:42:58Z</time>
      </trkpt>
      <trkpt lat="28.16100660" lon="-17.2055983">
        <ele>456.00000</ele>
        <time>2009-09-22T12:43:03Z</time>
      </trkpt>
      <trkpt lat="28.16100660" lon="-17.2054266">
        <ele>456.00000</ele>
        <time>2009-09-22T12:43:09Z</time>
      </trkpt>
      <trkpt lat="28.16096330" lon="-17.2051700">
        <ele>425.00000</ele>
        <time>2009-09-22T12:43:18Z</time>
      </trkpt>
      <trkpt lat="28.16132830" lon="-17.2048050">
        <ele>297.00000</ele>
        <time>2009-09-22T12:43:37Z</time>
      </trkpt>
      <trkpt lat="28.16137000" lon="-17.2043966">
        <ele>326.00000</ele>
        <time>2009-09-22T12:43:52Z</time>
      </trkpt>
      <trkpt lat="28.16154160" lon="-17.2040316">
        <ele>326.00000</ele>
        <time>2009-09-22T12:44:06Z</time>
      </trkpt>
      <trkpt lat="28.16117830" lon="-17.2039466">
        <ele>391.00000</ele>
        <time>2009-09-22T12:44:21Z</time>
      </trkpt>
      <trkpt lat="28.16096330" lon="-17.2040100">
        <ele>391.00000</ele>
        <time>2009-09-22T12:44:30Z</time>
      </trkpt>
      <trkpt lat="28.16143500" lon="-17.2035166">
        <ele>343.00000</ele>
        <time>2009-09-22T12:44:56Z</time>
      </trkpt>
      <trkpt lat="28.16150000" lon="-17.2032600">
        <ele>343.00000</ele>
        <time>2009-09-22T12:45:05Z</time>
      </trkpt>
      <trkpt lat="28.16139160" lon="-17.2032600">
        <ele>343.00000</ele>
        <time>2009-09-22T12:45:10Z</time>
      </trkpt>
      <trkpt lat="28.16083500" lon="-17.2034950">
        <ele>371.00000</ele>
        <time>2009-09-22T12:45:33Z</time>
      </trkpt>
      <trkpt lat="28.15956830" lon="-17.2032383">
        <ele>326.00000</ele>
        <time>2009-09-22T12:46:25Z</time>
      </trkpt>
      <trkpt lat="28.15907500" lon="-17.2030016">
        <ele>326.00000</ele>
        <time>2009-09-22T12:46:46Z</time>
      </trkpt>
      <trkpt lat="28.15838830" lon="-17.2023583">
        <ele>294.00000</ele>
        <time>2009-09-22T12:47:22Z</time>
      </trkpt>
      <trkpt lat="28.15795830" lon="-17.2022716">
        <ele>294.00000</ele>
        <time>2009-09-22T12:47:39Z</time>
      </trkpt>
      <trkpt lat="28.15770160" lon="-17.2021866">
        <ele>326.00000</ele>
        <time>2009-09-22T12:47:50Z</time>
      </trkpt>
      <trkpt lat="28.15684330" lon="-17.2022300">
        <ele>334.00000</ele>
        <time>2009-09-22T12:48:25Z</time>
      </trkpt>
      <trkpt lat="28.15660660" lon="-17.2020366">
        <ele>297.00000</ele>
        <time>2009-09-22T12:48:36Z</time>
      </trkpt>
      <trkpt lat="28.15630660" lon="-17.2009850">
        <ele>265.00000</ele>
        <time>2009-09-22T12:49:15Z</time>
      </trkpt>
      <trkpt lat="28.15613500" lon="-17.2007916">
        <ele>280.00000</ele>
        <time>2009-09-22T12:49:25Z</time>
      </trkpt>
      <trkpt lat="28.15587830" lon="-17.2006633">
        <ele>280.00000</ele>
        <time>2009-09-22T12:49:36Z</time>
      </trkpt>
      <trkpt lat="28.15521160" lon="-17.2008350">
        <ele>292.00000</ele>
        <time>2009-09-22T12:50:04Z</time>
      </trkpt>
      <trkpt lat="28.15478330" lon="-17.2012416">
        <ele>292.00000</ele>
        <time>2009-09-22T12:50:26Z</time>
      </trkpt>
      <trkpt lat="28.15422500" lon="-17.2015650">
        <ele>318.00000</ele>
        <time>2009-09-22T12:50:51Z</time>
      </trkpt>
      <trkpt lat="28.15414000" lon="-17.2024866">
        <ele>346.00000</ele>
        <time>2009-09-22T12:51:24Z</time>
      </trkpt>
      <trkpt lat="28.15394660" lon="-17.2029583">
        <ele>365.00000</ele>
        <time>2009-09-22T12:51:42Z</time>
      </trkpt>
      <trkpt lat="28.15293830" lon="-17.2030450">
        <ele>328.00000</ele>
        <time>2009-09-22T12:52:23Z</time>
      </trkpt>
      <trkpt lat="28.15270160" lon="-17.2032600">
        <ele>311.00000</ele>
        <time>2009-09-22T12:52:35Z</time>
      </trkpt>
      <trkpt lat="28.15223000" lon="-17.2033666">
        <ele>311.00000</ele>
        <time>2009-09-22T12:52:54Z</time>
      </trkpt>
      <trkpt lat="28.15201500" lon="-17.2036033">
        <ele>304.00000</ele>
        <time>2009-09-22T12:53:06Z</time>
      </trkpt>
      <trkpt lat="28.15190830" lon="-17.2037966">
        <ele>332.00000</ele>
        <time>2009-09-22T12:53:14Z</time>
      </trkpt>
      <trkpt lat="28.15147830" lon="-17.2035383">
        <ele>304.00000</ele>
        <time>2009-09-22T12:53:33Z</time>
      </trkpt>
      <trkpt lat="28.15113500" lon="-17.2035166">
        <ele>292.00000</ele>
        <time>2009-09-22T12:53:47Z</time>
      </trkpt>
      <trkpt lat="28.15079160" lon="-17.2035816">
        <ele>292.00000</ele>
        <time>2009-09-22T12:54:01Z</time>
      </trkpt>
      <trkpt lat="28.14993330" lon="-17.2040533">
        <ele>327.00000</ele>
        <time>2009-09-22T12:54:39Z</time>
      </trkpt>
      <trkpt lat="28.14959000" lon="-17.2044616">
        <ele>327.00000</ele>
        <time>2009-09-22T12:54:59Z</time>
      </trkpt>
      <trkpt lat="28.14916160" lon="-17.2046966">
        <ele>341.00000</ele>
        <time>2009-09-22T12:55:18Z</time>
      </trkpt>
    </trkseg>
  </trk>
</gpx>

